KSBP/SBP METAR and TAF weather

Enter ICAO airport designator
Station Type Date Time Source
KSBP METAR 2021/09/16 09:56 UTC NOAA

KSBP 160956Z AUTO 00000KT 10SM OVC007 14/12 A2988 RMK AO2 SLP117 T01390117


Station Type Date Time Source
KSBP Decoded METAR 2021/09/16 09:56 UTC NOAA

SAN LUIS OBISPO MC CHESNEY, CA, United States (KSBP) 35-14N 120-38W 59M
Sep 16, 2021 - 05:56 AM EDT / 2021.09.16 0956 UTC
Wind: Calm:0
Visibility: 10 mile(s):0
Sky conditions: overcast
Temperature: 57.0 F (13.9 C)
Dew Point: 53.1 F (11.7 C)
Relative Humidity: 86%
Pressure (altimeter): 29.88 in. Hg (1011 hPa)
ob: KSBP 160956Z AUTO 00000KT 10SM OVC007 14/12 A2988 RMK AO2 SLP117 T01390117
cycle: 10

Station Type Date Time Source
KSBP TAF 2021/09/16 09:12 UTC NOAA

TAF
AMD KSBP 160908Z 1609/1706 VRB03KT P6SM BKN008
FM161300 VRB03KT 4SM BR OVC004
FM161600 VRB03KT P6SM OVC006
FM161800 25006KT P6SM SCT012
FM162100 30012KT P6SM SKC
FM170400 VRB03KT P6SM OVC010

Example: see airport list